sensor_id;sensor_type;location;lat;lon;timestamp;pressure;altitude;pressure_sealevel;temperature;humidity
28921;BME280;16035;53.594;9.952;2023-08-24T00:00:00;101761.75;;;21.06;63.91
28921;BME280;16035;53.594;9.952;2023-08-24T00:02:01;101765.66;;;21.05;63.98
28921;BME280;16035;53.594;9.952;2023-08-24T00:04:02;101767.06;;;21.03;64.06
28921;BME280;16035;53.594;9.952;2023-08-24T00:06:02;101763.31;;;20.99;64.10
28921;BME280;16035;53.594;9.952;2023-08-24T00:08:06;101773.50;;;20.98;64.48
28921;BME280;16035;53.594;9.952;2023-08-24T00:10:08;101760.31;;;20.95;64.32
28921;BME280;16035;53.594;9.952;2023-08-24T00:12:08;101756.75;;;20.94;64.38
28921;BME280;16035;53.594;9.952;2023-08-24T00:14:09;101768.31;;;20.97;64.38
28921;BME280;16035;53.594;9.952;2023-08-24T00:16:09;101765.31;;;20.93;64.43
28921;BME280;16035;53.594;9.952;2023-08-24T00:18:09;101766.78;;;20.90;64.42
28921;BME280;16035;53.594;9.952;2023-08-24T00:20:10;101757.97;;;20.88;64.75
28921;BME280;16035;53.594;9.952;2023-08-24T00:22:10;101758.59;;;20.85;64.49
28921;BME280;16035;53.594;9.952;2023-08-24T00:24:11;101759.50;;;20.81;64.52
28921;BME280;16035;53.594;9.952;2023-08-24T00:26:11;101754.91;;;20.76;64.69
28921;BME280;16035;53.594;9.952;2023-08-24T00:28:11;101747.22;;;20.73;64.60
28921;BME280;16035;53.594;9.952;2023-08-24T00:30:12;101752.53;;;20.69;64.71
28921;BME280;16035;53.594;9.952;2023-08-24T00:32:12;101755.59;;;20.68;64.90
28921;BME280;16035;53.594;9.952;2023-08-24T00:34:12;101752.31;;;20.66;64.92
28921;BME280;16035;53.594;9.952;2023-08-24T00:36:13;101754.25;;;20.65;65.05
28921;BME280;16035;53.594;9.952;2023-08-24T00:38:13;101754.25;;;20.65;65.26
28921;BME280;16035;53.594;9.952;2023-08-24T00:40:14;101755.38;;;20.64;65.24
28921;BME280;16035;53.594;9.952;2023-08-24T00:42:14;101757.31;;;20.64;65.25
28921;BME280;16035;53.594;9.952;2023-08-24T00:44:15;101752.94;;;20.63;65.25
28921;BME280;16035;53.594;9.952;2023-08-24T00:46:16;101747.69;;;20.61;65.31
28921;BME280;16035;53.594;9.952;2023-08-24T00:48:17;101744.72;;;20.58;65.37
28921;BME280;16035;53.594;9.952;2023-08-24T00:50:17;101753.31;;;20.56;65.52
28921;BME280;16035;53.594;9.952;2023-08-24T00:52:18;101750.56;;;20.56;65.48
28921;BME280;16035;53.594;9.952;2023-08-24T00:54:18;101752.00;;;20.54;65.59
28921;BME280;16035;53.594;9.952;2023-08-24T00:56:19;101752.28;;;20.52;65.54
28921;BME280;16035;53.594;9.952;2023-08-24T00:58:26;101757.31;;;20.50;65.81
28921;BME280;16035;53.594;9.952;2023-08-24T01:00:27;101753.41;;;20.51;65.84
28921;BME280;16035;53.594;9.952;2023-08-24T01:02:27;101752.88;;;20.49;65.71
28921;BME280;16035;53.594;9.952;2023-08-24T01:04:28;101758.72;;;20.48;65.69
28921;BME280;16035;53.594;9.952;2023-08-24T01:06:28;101758.19;;;20.45;65.69
28921;BME280;16035;53.594;9.952;2023-08-24T01:08:29;101757.66;;;20.43;65.89
28921;BME280;16035;53.594;9.952;2023-08-24T01:13:10;101763.81;;;20.40;66.02
28921;BME280;16035;53.594;9.952;2023-08-24T01:15:17;101766.03;;;20.38;65.91
28921;BME280;16035;53.594;9.952;2023-08-24T01:17:22;101772.13;;;20.35;66.04
28921;BME280;16035;53.594;9.952;2023-08-24T01:21:27;101765.06;;;20.29;66.16
28921;BME280;16035;53.594;9.952;2023-08-24T01:26:14;101770.38;;;20.26;66.78
28921;BME280;16035;53.594;9.952;2023-08-24T01:28:15;101769.25;;;20.27;66.55
28921;BME280;16035;53.594;9.952;2023-08-24T01:30:17;101772.31;;;20.25;66.60
28921;BME280;16035;53.594;9.952;2023-08-24T01:32:17;101771.00;;;20.23;67.19
28921;BME280;16035;53.594;9.952;2023-08-24T01:34:18;101775.66;;;20.22;66.49
28921;BME280;16035;53.594;9.952;2023-08-24T01:36:18;101774.56;;;20.23;66.69
28921;BME280;16035;53.594;9.952;2023-08-24T01:38:19;101773.22;;;20.20;66.64
28921;BME280;16035;53.594;9.952;2023-08-24T01:40:24;101774.34;;;20.19;66.76
28921;BME280;16035;53.594;9.952;2023-08-24T01:42:29;101771.06;;;20.17;67.07
28921;BME280;16035;53.594;9.952;2023-08-24T01:44:35;101774.13;;;20.16;66.97
28921;BME280;16035;53.594;9.952;2023-08-24T01:46:36;101776.06;;;20.15;66.97
28921;BME280;16035;53.594;9.952;2023-08-24T01:48:38;101769.19;;;20.13;66.83
28921;BME280;16035;53.594;9.952;2023-08-24T01:50:39;101764.31;;;20.10;67.41
28921;BME280;16035;53.594;9.952;2023-08-24T01:52:41;101762.94;;;20.07;66.79
28921;BME280;16035;53.594;9.952;2023-08-24T01:54:43;101768.25;;;20.04;66.88
28921;BME280;16035;53.594;9.952;2023-08-24T01:56:43;101769.13;;;19.99;66.82
28921;BME280;16035;53.594;9.952;2023-08-24T01:58:44;101760.06;;;19.99;66.90
28921;BME280;16035;53.594;9.952;2023-08-24T02:00:44;101754.03;;;19.97;67.08
28921;BME280;16035;53.594;9.952;2023-08-24T02:02:45;101758.41;;;19.98;66.94
28921;BME280;16035;53.594;9.952;2023-08-24T02:04:45;101754.31;;;19.95;67.00
28921;BME280;16035;53.594;9.952;2023-08-24T02:06:46;101756.03;;;19.91;66.97
28921;BME280;16035;53.594;9.952;2023-08-24T02:08:46;101755.00;;;19.87;67.22
28921;BME280;16035;53.594;9.952;2023-08-24T02:10:47;101748.94;;;19.85;67.26
28921;BME280;16035;53.594;9.952;2023-08-24T02:12:47;101745.97;;;19.81;67.13
28921;BME280;16035;53.594;9.952;2023-08-24T02:14:48;101748.81;;;19.76;67.13
28921;BME280;16035;53.594;9.952;2023-08-24T02:16:48;101745.81;;;19.73;67.10
28921;BME280;16035;53.594;9.952;2023-08-24T02:18:48;101746.22;;;19.66;67.24
28921;BME280;16035;53.594;9.952;2023-08-24T02:20:49;101742.09;;;19.63;67.15
28921;BME280;16035;53.594;9.952;2023-08-24T02:22:49;101739.94;;;19.60;67.48
28921;BME280;16035;53.594;9.952;2023-08-24T02:24:49;101736.94;;;19.57;67.54
28921;BME280;16035;53.594;9.952;2023-08-24T02:26:50;101738.06;;;19.56;67.50
28921;BME280;16035;53.594;9.952;2023-08-24T02:28:50;101737.28;;;19.50;67.47
28921;BME280;16035;53.594;9.952;2023-08-24T02:30:50;101738.41;;;19.49;67.89
28921;BME280;16035;53.594;9.952;2023-08-24T02:32:51;101742.28;;;19.48;67.62
28921;BME280;16035;53.594;9.952;2023-08-24T02:34:51;101731.34;;;19.43;67.59
28921;BME280;16035;53.594;9.952;2023-08-24T02:36:52;101733.56;;;19.41;67.93
28921;BME280;16035;53.594;9.952;2023-08-24T02:38:52;101734.69;;;19.40;67.85
28921;BME280;16035;53.594;9.952;2023-08-24T02:41:03;101735.81;;;19.39;68.13
28921;BME280;16035;53.594;9.952;2023-08-24T02:43:04;101739.13;;;19.36;68.46
28921;BME280;16035;53.594;9.952;2023-08-24T02:45:05;101739.72;;;19.33;67.94
28921;BME280;16035;53.594;9.952;2023-08-24T02:47:05;101740.34;;;19.30;67.95
28921;BME280;16035;53.594;9.952;2023-08-24T02:49:05;101732.34;;;19.28;68.05
28921;BME280;16035;53.594;9.952;2023-08-24T02:51:07;101727.13;;;19.27;67.97
28921;BME280;16035;53.594;9.952;2023-08-24T02:53:08;101725.50;;;19.26;68.22
28921;BME280;16035;53.594;9.952;2023-08-24T02:55:09;101727.72;;;19.24;68.28
28921;BME280;16035;53.594;9.952;2023-08-24T02:57:09;101724.44;;;19.22;68.85
28921;BME280;16035;53.594;9.952;2023-08-24T02:59:10;101726.16;;;19.17;68.19
28921;BME280;16035;53.594;9.952;2023-08-24T03:01:10;101724.78;;;19.15;68.53
28921;BME280;16035;53.594;9.952;2023-08-24T03:03:11;101726.72;;;19.14;68.44
28921;BME280;16035;53.594;9.952;2023-08-24T03:05:11;101724.59;;;19.11;68.35
28921;BME280;16035;53.594;9.952;2023-08-24T03:07:12;101733.94;;;19.10;68.49
28921;BME280;16035;53.594;9.952;2023-08-24T03:09:12;101726.28;;;19.07;68.58
28921;BME280;16035;53.594;9.952;2023-08-24T03:11:13;101728.22;;;19.07;68.85
28921;BME280;16035;53.594;9.952;2023-08-24T03:13:13;101720.53;;;19.04;68.66
28921;BME280;16035;53.594;9.952;2023-08-24T03:15:14;101728.81;;;19.04;68.62
28921;BME280;16035;53.594;9.952;2023-08-24T03:17:14;101732.13;;;19.01;68.87
28921;BME280;16035;53.594;9.952;2023-08-24T03:19:14;101726.13;;;18.99;68.81
28921;BME280;16035;53.594;9.952;2023-08-24T03:21:18;101723.13;;;18.95;69.06
28921;BME280;16035;53.594;9.952;2023-08-24T03:23:18;101720.69;;;18.93;68.98
28921;BME280;16035;53.594;9.952;2023-08-24T03:25:18;101731.16;;;18.91;69.04
28921;BME280;16035;53.594;9.952;2023-08-24T03:27:18;101718.50;;;18.90;69.13
28921;BME280;16035;53.594;9.952;2023-08-24T03:29:19;101719.88;;;18.88;69.06
28921;BME280;16035;53.594;9.952;2023-08-24T03:31:19;101724.59;;;18.87;69.16
28921;BME280;16035;53.594;9.952;2023-08-24T03:33:20;101717.75;;;18.85;69.15
28921;BME280;16035;53.594;9.952;2023-08-24T03:35:20;101720.78;;;18.83;69.29
28921;BME280;16035;53.594;9.952;2023-08-24T03:37:20;101722.19;;;18.81;69.36
28921;BME280;16035;53.594;9.952;2023-08-24T03:39:21;101712.56;;;18.78;69.11
28921;BME280;16035;53.594;9.952;2023-08-24T03:41:21;101717.84;;;18.75;69.23
28921;BME280;16035;53.594;9.952;2023-08-24T03:43:21;101726.41;;;18.73;69.37
28921;BME280;16035;53.594;9.952;2023-08-24T03:45:22;101714.56;;;18.73;69.42
28921;BME280;16035;53.594;9.952;2023-08-24T03:47:22;101710.19;;;18.72;69.35
28921;BME280;16035;53.594;9.952;2023-08-24T03:49:23;101712.38;;;18.69;69.05
28921;BME280;16035;53.594;9.952;2023-08-24T03:51:23;101716.81;;;18.65;69.54
28921;BME280;16035;53.594;9.952;2023-08-24T03:53:24;101719.84;;;18.64;69.49
28921;BME280;16035;53.594;9.952;2023-08-24T03:55:24;101716.28;;;18.63;69.54
28921;BME280;16035;53.594;9.952;2023-08-24T03:57:25;101714.94;;;18.61;69.66
28921;BME280;16035;53.594;9.952;2023-08-24T03:59:25;101715.22;;;18.59;69.79
28921;BME280;16035;53.594;9.952;2023-08-24T04:01:25;101713.88;;;18.57;69.93
28921;BME280;16035;53.594;9.952;2023-08-24T04:03:26;101715.81;;;18.56;69.71
28921;BME280;16035;53.594;9.952;2023-08-24T04:05:26;101716.91;;;18.55;69.66
28921;BME280;16035;53.594;9.952;2023-08-24T04:07:28;101723.25;;;18.56;70.10
28921;BME280;16035;53.594;9.952;2023-08-24T04:09:28;101719.97;;;18.54;69.81
28921;BME280;16035;53.594;9.952;2023-08-24T04:11:29;101714.47;;;18.54;69.83
28921;BME280;16035;53.594;9.952;2023-08-24T04:13:29;101719.44;;;18.52;69.84
28921;BME280;16035;53.594;9.952;2023-08-24T04:15:30;101710.34;;;18.51;69.92
28921;BME280;16035;53.594;9.952;2023-08-24T04:17:30;101709.22;;;18.52;69.96
28921;BME280;16035;53.594;9.952;2023-08-24T04:19:31;101712.28;;;18.51;70.04
28921;BME280;16035;53.594;9.952;2023-08-24T04:21:31;101707.34;;;18.48;70.30
28921;BME280;16035;53.594;9.952;2023-08-24T04:23:31;101709.28;;;18.47;70.01
28921;BME280;16035;53.594;9.952;2023-08-24T04:25:32;101710.41;;;18.46;70.08
28921;BME280;16035;53.594;9.952;2023-08-24T04:27:32;101702.44;;;18.44;70.16
28921;BME280;16035;53.594;9.952;2023-08-24T04:29:33;101700.78;;;18.43;70.21
28921;BME280;16035;53.594;9.952;2023-08-24T04:31:33;101704.38;;;18.44;70.10
28921;BME280;16035;53.594;9.952;2023-08-24T04:33:33;101710.47;;;18.41;70.31
28921;BME280;16035;53.594;9.952;2023-08-24T04:35:34;101716.78;;;18.41;70.32
28921;BME280;16035;53.594;9.952;2023-08-24T04:37:36;101714.34;;;18.40;70.55
28921;BME280;16035;53.594;9.952;2023-08-24T04:39:37;101710.75;;;18.39;70.39
28921;BME280;16035;53.594;9.952;2023-08-24T04:41:37;101717.09;;;18.40;70.38
28921;BME280;16035;53.594;9.952;2023-08-24T04:43:38;101716.53;;;18.38;70.40
28921;BME280;16035;53.594;9.952;2023-08-24T04:45:38;101706.94;;;18.35;70.52
28921;BME280;16035;53.594;9.952;2023-08-24T04:47:38;101711.59;;;18.35;70.66
28921;BME280;16035;53.594;9.952;2023-08-24T04:49:39;101720.41;;;18.37;70.57
28921;BME280;16035;53.594;9.952;2023-08-24T04:51:39;101723.16;;;18.37;70.57
28921;BME280;16035;53.594;9.952;2023-08-24T04:53:39;101718.78;;;18.36;70.50
28921;BME280;16035;53.594;9.952;2023-08-24T04:55:40;101719.84;;;18.35;70.26
28921;BME280;16035;53.594;9.952;2023-08-24T04:57:41;101727.53;;;18.38;70.56
28921;BME280;16035;53.594;9.952;2023-08-24T04:59:42;101726.72;;;18.37;70.66
28921;BME280;16035;53.594;9.952;2023-08-24T05:01:42;101723.69;;;18.39;70.72
28921;BME280;16035;53.594;9.952;2023-08-24T05:03:43;101724.78;;;18.38;70.74
28921;BME280;16035;53.594;9.952;2023-08-24T05:05:45;101726.72;;;18.37;70.58
28921;BME280;16035;53.594;9.952;2023-08-24T05:07:46;101730.28;;;18.38;70.90
28921;BME280;16035;53.594;9.952;2023-08-24T05:09:46;101727.53;;;18.38;70.63
28921;BME280;16035;53.594;9.952;2023-08-24T05:11:46;101735.53;;;18.39;70.93
28921;BME280;16035;53.594;9.952;2023-08-24T05:13:47;101737.97;;;18.41;70.87
28921;BME280;16035;53.594;9.952;2023-08-24T05:15:47;101734.13;;;18.42;71.15
28921;BME280;16035;53.594;9.952;2023-08-24T05:17:47;101731.38;;;18.42;70.92
28921;BME280;16035;53.594;9.952;2023-08-24T05:19:51;101738.50;;;18.43;70.83
28921;BME280;16035;53.594;9.952;2023-08-24T05:21:52;101741.81;;;18.45;70.99
28921;BME280;16035;53.594;9.952;2023-08-24T05:23:52;101747.31;;;18.45;70.99
28921;BME280;16035;53.594;9.952;2023-08-24T05:25:52;101737.94;;;18.46;71.10
28921;BME280;16035;53.594;9.952;2023-08-24T05:27:53;101733.25;;;18.47;71.13
28921;BME280;16035;53.594;9.952;2023-08-24T05:29:53;101743.13;;;18.48;71.32
28921;BME280;16035;53.594;9.952;2023-08-24T05:31:54;101737.56;;;18.53;71.30
28921;BME280;16035;53.594;9.952;2023-08-24T05:33:54;101748.00;;;18.56;71.44
28921;BME280;16035;53.594;9.952;2023-08-24T05:35:54;101756.22;;;18.61;71.23
28921;BME280;16035;53.594;9.952;2023-08-24T05:37:54;101754.84;;;18.63;71.23
28921;BME280;16035;53.594;9.952;2023-08-24T05:39:55;101753.13;;;18.67;71.31
28921;BME280;16035;53.594;9.952;2023-08-24T05:41:55;101749.53;;;18.72;71.36
28921;BME280;16035;53.594;9.952;2023-08-24T05:43:56;101746.50;;;18.74;71.36
28921;BME280;16035;53.594;9.952;2023-08-24T05:45:57;101740.41;;;18.77;71.50
28921;BME280;16035;53.594;9.952;2023-08-24T05:47:57;101742.28;;;18.81;71.46
28921;BME280;16035;53.594;9.952;2023-08-24T05:49:58;101736.19;;;18.84;71.46
28921;BME280;16035;53.594;9.952;2023-08-24T05:51:58;101736.97;;;18.90;71.45
28921;BME280;16035;53.594;9.952;2023-08-24T05:53:58;101725.38;;;18.93;71.32
28921;BME280;16035;53.594;9.952;2023-08-24T05:55:59;101728.06;;;18.98;71.19
28921;BME280;16035;53.594;9.952;2023-08-24T05:57:59;101733.56;;;18.98;71.40
28921;BME280;16035;53.594;9.952;2023-08-24T05:59:59;101738.69;;;19.05;71.34
28921;BME280;16035;53.594;9.952;2023-08-24T06:02:00;101733.44;;;19.08;71.40
28921;BME280;16035;53.594;9.952;2023-08-24T06:04:00;101733.94;;;19.10;71.51
28921;BME280;16035;53.594;9.952;2023-08-24T06:06:02;101736.94;;;19.14;71.47
28921;BME280;16035;53.594;9.952;2023-08-24T06:08:03;101735.25;;;19.18;71.58
28921;BME280;16035;53.594;9.952;2023-08-24T06:10:04;101740.44;;;19.19;71.56
28921;BME280;16035;53.594;9.952;2023-08-24T06:12:06;101736.28;;;19.22;71.44
28921;BME280;16035;53.594;9.952;2023-08-24T06:14:07;101745.31;;;19.28;71.60
28921;BME280;16035;53.594;9.952;2023-08-24T06:16:07;101737.56;;;19.30;71.58
28921;BME280;16035;53.594;9.952;2023-08-24T06:18:07;101730.63;;;19.32;71.41
28921;BME280;16035;53.594;9.952;2023-08-24T06:20:08;101722.59;;;19.36;71.39
28921;BME280;16035;53.594;9.952;2023-08-24T06:22:12;101709.06;;;19.39;71.17
28921;BME280;16035;53.594;9.952;2023-08-24T06:24:13;101708.66;;;19.46;71.08
28921;BME280;16035;53.594;9.952;2023-08-24T06:26:13;101710.84;;;19.49;71.25
28921;BME280;16035;53.594;9.952;2023-08-24T06:28:14;101698.09;;;19.53;71.18
28921;BME280;16035;53.594;9.952;2023-08-24T06:30:14;101702.50;;;19.54;71.33
28921;BME280;16035;53.594;9.952;2023-08-24T06:32:14;101694.16;;;19.59;70.85
28921;BME280;16035;53.594;9.952;2023-08-24T06:34:15;101695.53;;;19.62;70.90
28921;BME280;16035;53.594;9.952;2023-08-24T06:36:15;101689.44;;;19.65;70.93
28921;BME280;16035;53.594;9.952;2023-08-24T06:38:15;101697.06;;;19.68;70.55
28921;BME280;16035;53.594;9.952;2023-08-24T06:40:16;101696.81;;;19.69;70.75
28921;BME280;16035;53.594;9.952;2023-08-24T06:42:17;101693.41;;;19.73;70.81
28921;BME280;16035;53.594;9.952;2023-08-24T06:44:17;101692.84;;;19.76;71.11
28921;BME280;16035;53.594;9.952;2023-08-24T06:46:18;101690.28;;;19.79;70.56
28921;BME280;16035;53.594;9.952;2023-08-24T06:48:19;101694.91;;;19.84;70.62
28921;BME280;16035;53.594;9.952;2023-08-24T06:50:19;101688.50;;;19.88;70.35
28921;BME280;16035;53.594;9.952;2023-08-24T06:52:20;101690.34;;;19.93;70.25
28921;BME280;16035;53.594;9.952;2023-08-24T06:54:20;101687.00;;;19.96;70.21
28921;BME280;16035;53.594;9.952;2023-08-24T06:56:21;101678.84;;;20.05;70.38
28921;BME280;16035;53.594;9.952;2023-08-24T06:58:21;101671.56;;;20.09;70.13
28921;BME280;16035;53.594;9.952;2023-08-24T07:00:22;101672.84;;;20.16;70.04
28921;BME280;16035;53.594;9.952;2023-08-24T07:02:23;101686.34;;;20.18;69.83
28921;BME280;16035;53.594;9.952;2023-08-24T07:04:23;101672.25;;;20.19;69.73
28921;BME280;16035;53.594;9.952;2023-08-24T07:06:24;101677.53;;;20.16;69.77
28921;BME280;16035;53.594;9.952;2023-08-24T07:08:25;101669.16;;;20.21;69.55
28921;BME280;16035;53.594;9.952;2023-08-24T07:10:25;101672.97;;;20.25;69.67
28921;BME280;16035;53.594;9.952;2023-08-24T07:12:25;101668.16;;;20.31;69.53
28921;BME280;16035;53.594;9.952;2023-08-24T07:14:26;101669.19;;;20.35;69.10
28921;BME280;16035;53.594;9.952;2023-08-24T07:16:26;101671.34;;;20.38;69.15
28921;BME280;16035;53.594;9.952;2023-08-24T07:18:26;101668.16;;;20.44;68.99
28921;BME280;16035;53.594;9.952;2023-08-24T07:20:27;101679.69;;;20.52;68.96
28921;BME280;16035;53.594;9.952;2023-08-24T07:22:27;101679.56;;;20.57;68.77
28921;BME280;16035;53.594;9.952;2023-08-24T07:24:27;101676.41;;;20.63;68.83
28921;BME280;16035;53.594;9.952;2023-08-24T07:26:29;101674.16;;;20.65;68.46
28921;BME280;16035;53.594;9.952;2023-08-24T07:28:30;101688.50;;;20.67;68.20
28921;BME280;16035;53.594;9.952;2023-08-24T07:30:31;101684.50;;;20.74;68.27
28921;BME280;16035;53.594;9.952;2023-08-24T07:32:32;101676.63;;;20.81;68.26
28921;BME280;16035;53.594;9.952;2023-08-24T07:34:32;101674.69;;;20.81;67.72
28921;BME280;16035;53.594;9.952;2023-08-24T07:36:32;101667.72;;;20.84;67.81
28921;BME280;16035;53.594;9.952;2023-08-24T07:38:33;101656.53;;;20.89;67.89
28921;BME280;16035;53.594;9.952;2023-08-24T07:40:33;101658.91;;;20.95;67.58
28921;BME280;16035;53.594;9.952;2023-08-24T07:42:43;101667.56;;;21.03;67.68
28921;BME280;16035;53.594;9.952;2023-08-24T07:44:43;101675.47;;;21.09;67.55
28921;BME280;16035;53.594;9.952;2023-08-24T07:46:44;101669.81;;;21.14;67.21
28921;BME280;16035;53.594;9.952;2023-08-24T07:48:44;101670.22;;;21.22;67.12
28921;BME280;16035;53.594;9.952;2023-08-24T07:50:44;101662.94;;;21.39;67.17
28921;BME280;16035;53.594;9.952;2023-08-24T07:52:45;101658.81;;;21.51;66.74
28921;BME280;16035;53.594;9.952;2023-08-24T07:54:45;101664.47;;;21.68;66.44
28921;BME280;16035;53.594;9.952;2023-08-24T07:56:45;101664.66;;;21.72;66.24
28921;BME280;16035;53.594;9.952;2023-08-24T07:58:46;101661.44;;;21.78;66.33
28921;BME280;16035;53.594;9.952;2023-08-24T08:00:49;101665.56;;;21.81;65.78
28921;BME280;16035;53.594;9.952;2023-08-24T08:02:50;101664.78;;;21.89;65.81
28921;BME280;16035;53.594;9.952;2023-08-24T08:04:51;101654.94;;;22.05;66.16
28921;BME280;16035;53.594;9.952;2023-08-24T08:06:52;101654.88;;;22.41;65.09
28921;BME280;16035;53.594;9.952;2023-08-24T08:08:53;101655.25;;;22.57;64.98
28921;BME280;16035;53.594;9.952;2023-08-24T08:11:01;101640.63;;;22.65;64.52
28921;BME280;16035;53.594;9.952;2023-08-24T08:13:02;101634.78;;;22.76;64.14
28921;BME280;16035;53.594;9.952;2023-08-24T08:15:03;101630.06;;;22.85;64.44
28921;BME280;16035;53.594;9.952;2023-08-24T08:17:03;101624.56;;;22.93;64.64
28921;BME280;16035;53.594;9.952;2023-08-24T08:19:03;101628.53;;;23.10;64.55
28921;BME280;16035;53.594;9.952;2023-08-24T08:21:17;101630.50;;;23.27;64.24
28921;BME280;16035;53.594;9.952;2023-08-24T08:23:18;101631.47;;;23.48;63.29
28921;BME280;16035;53.594;9.952;2023-08-24T08:25:18;101626.91;;;23.69;63.11
28921;BME280;16035;53.594;9.952;2023-08-24T08:27:18;101625.44;;;23.81;61.76
28921;BME280;16035;53.594;9.952;2023-08-24T08:29:19;101628.03;;;23.86;61.82
28921;BME280;16035;53.594;9.952;2023-08-24T08:31:19;101613.16;;;23.90;61.80
28921;BME280;16035;53.594;9.952;2023-08-24T08:33:19;101614.28;;;23.98;62.21
28921;BME280;16035;53.594;9.952;2023-08-24T08:35:22;101617.34;;;24.14;61.81
28921;BME280;16035;53.594;9.952;2023-08-24T08:37:22;101623.16;;;24.30;61.37
28921;BME280;16035;53.594;9.952;2023-08-24T08:39:23;101620.13;;;24.61;61.08
28921;BME280;16035;53.594;9.952;2023-08-24T08:41:27;101609.31;;;24.89;60.32
28921;BME280;16035;53.594;9.952;2023-08-24T08:43:28;101613.06;;;24.93;58.63
28921;BME280;16035;53.594;9.952;2023-08-24T08:45:30;101616.13;;;24.70;58.73
28921;BME280;16035;53.594;9.952;2023-08-24T08:47:31;101621.00;;;24.44;58.88
28921;BME280;16035;53.594;9.952;2023-08-24T08:49:31;101620.25;;;24.17;59.34
28921;BME280;16035;53.594;9.952;2023-08-24T08:51:35;101622.06;;;24.13;59.98
28921;BME280;16035;53.594;9.952;2023-08-24T08:53:36;101615.19;;;24.66;60.17
28921;BME280;16035;53.594;9.952;2023-08-24T08:55:36;101602.69;;;25.44;59.28
28921;BME280;16035;53.594;9.952;2023-08-24T08:57:37;101601.53;;;26.24;57.93
28921;BME280;16035;53.594;9.952;2023-08-24T08:59:40;101602.66;;;27.08;56.20
28921;BME280;16035;53.594;9.952;2023-08-24T09:01:41;101608.72;;;27.51;55.15
28921;BME280;16035;53.594;9.952;2023-08-24T09:03:42;101607.88;;;28.38;54.16
28921;BME280;16035;53.594;9.952;2023-08-24T09:05:44;101607.69;;;28.98;53.48
28921;BME280;16035;53.594;9.952;2023-08-24T09:07:48;101591.59;;;29.49;51.97
28921;BME280;16035;53.594;9.952;2023-08-24T09:09:49;101586.44;;;29.51;51.46
28921;BME280;16035;53.594;9.952;2023-08-24T09:11:50;101584.97;;;30.23;50.84
28921;BME280;16035;53.594;9.952;2023-08-24T09:13:51;101594.88;;;30.66;49.90
28921;BME280;16035;53.594;9.952;2023-08-24T09:15:52;101601.81;;;30.99;49.29
28921;BME280;16035;53.594;9.952;2023-08-24T09:17:55;101611.91;;;30.77;47.70
28921;BME280;16035;53.594;9.952;2023-08-24T09:19:58;101612.63;;;30.01;48.43
28921;BME280;16035;53.594;9.952;2023-08-24T09:22:01;101613.56;;;29.08;49.09
28921;BME280;16035;53.594;9.952;2023-08-24T09:24:02;101619.31;;;28.33;50.30
28921;BME280;16035;53.594;9.952;2023-08-24T09:26:03;101619.91;;;27.79;51.15
28921;BME280;16035;53.594;9.952;2023-08-24T09:28:05;101616.44;;;27.41;52.06
28921;BME280;16035;53.594;9.952;2023-08-24T09:30:06;101627.53;;;27.54;52.39
28921;BME280;16035;53.594;9.952;2023-08-24T09:32:10;101616.47;;;27.85;52.18
28921;BME280;16035;53.594;9.952;2023-08-24T09:34:12;101618.72;;;27.80;51.67
28921;BME280;16035;53.594;9.952;2023-08-24T09:36:14;101616.06;;;27.43;51.41
28921;BME280;16035;53.594;9.952;2023-08-24T09:40:24;101620.91;;;28.81;50.91
28921;BME280;16035;53.594;9.952;2023-08-24T09:42:26;101612.31;;;29.64;50.15
28921;BME280;16035;53.594;9.952;2023-08-24T09:44:27;101605.13;;;30.28;49.28
28921;BME280;16035;53.594;9.952;2023-08-24T09:46:28;101607.25;;;30.88;48.04
28921;BME280;16035;53.594;9.952;2023-08-24T09:48:28;101597.06;;;30.27;46.56
28921;BME280;16035;53.594;9.952;2023-08-24T09:50:31;101602.00;;;29.68;47.01
28921;BME280;16035;53.594;9.952;2023-08-24T09:52:32;101601.94;;;29.26;47.82
28921;BME280;16035;53.594;9.952;2023-08-24T09:54:37;101606.25;;;29.23;48.27
28921;BME280;16035;53.594;9.952;2023-08-24T09:56:39;101600.75;;;29.07;47.86
28921;BME280;16035;53.594;9.952;2023-08-24T09:58:41;101588.38;;;28.57;48.66
28921;BME280;16035;53.594;9.952;2023-08-24T10:00:45;101591.63;;;28.43;49.21
28921;BME280;16035;53.594;9.952;2023-08-24T10:02:51;101591.16;;;28.57;49.16
28921;BME280;16035;53.594;9.952;2023-08-24T10:04:53;101593.00;;;29.01;49.19
28921;BME280;16035;53.594;9.952;2023-08-24T10:07:00;101589.63;;;28.76;48.39
28921;BME280;16035;53.594;9.952;2023-08-24T10:09:07;101578.09;;;28.61;48.00
28921;BME280;16035;53.594;9.952;2023-08-24T10:11:08;101574.47;;;28.77;48.10
28921;BME280;16035;53.594;9.952;2023-08-24T10:13:29;101572.88;;;28.44;48.38
28921;BME280;16035;53.594;9.952;2023-08-24T10:15:32;101562.34;;;29.66;48.95
28921;BME280;16035;53.594;9.952;2023-08-24T10:17:34;101562.28;;;30.58;47.22
28921;BME280;16035;53.594;9.952;2023-08-24T10:19:35;101553.91;;;31.48;46.71
28921;BME280;16035;53.594;9.952;2023-08-24T10:21:37;101558.53;;;31.70;44.09
28921;BME280;16035;53.594;9.952;2023-08-24T10:23:38;101561.19;;;32.41;43.96
28921;BME280;16035;53.594;9.952;2023-08-24T10:25:39;101565.84;;;32.78;43.61
28921;BME280;16035;53.594;9.952;2023-08-24T10:27:42;101563.41;;;32.77;41.91
28921;BME280;16035;53.594;9.952;2023-08-24T10:29:44;101547.94;;;32.45;42.50
28921;BME280;16035;53.594;9.952;2023-08-24T10:31:44;101533.13;;;31.23;41.77
28921;BME280;16035;53.594;9.952;2023-08-24T10:33:48;101523.75;;;31.45;43.44
28921;BME280;16035;53.594;9.952;2023-08-24T10:35:49;101510.06;;;31.40;43.50
28921;BME280;16035;53.594;9.952;2023-08-24T10:37:52;101511.13;;;31.28;42.98
28921;BME280;16035;53.594;9.952;2023-08-24T10:39:53;101511.78;;;31.52;43.53
28921;BME280;16035;53.594;9.952;2023-08-24T10:41:53;101511.97;;;31.32;42.93